sensor_id;sensor_type;location;lat;lon;timestamp;pressure;altitude;pressure_sealevel;temperature;humidity
13420;BME280;6781;58.440;15.470;2024-01-16T00:00:33;99863.47;;;-12.07;100.00
13420;BME280;6781;58.440;15.470;2024-01-16T00:03:00;99848.50;;;-12.20;100.00
13420;BME280;6781;58.440;15.470;2024-01-16T00:05:27;99841.00;;;-12.27;100.00
13420;BME280;6781;58.440;15.470;2024-01-16T00:07:53;99855.97;;;-12.03;100.00
13420;BME280;6781;58.440;15.470;2024-01-16T00:10:20;99855.13;;;-12.11;100.00
13420;BME280;6781;58.440;15.470;2024-01-16T00:12:48;99858.47;;;-12.23;100.00
13420;BME280;6781;58.440;15.470;2024-01-16T00:15:15;99912.56;;;-11.59;100.00
13420;BME280;6781;58.440;15.470;2024-01-16T00:17:42;99924.22;;;-11.63;100.00
13420;BME280;6781;58.440;15.470;2024-01-16T00:20:09;99947.56;;;-11.68;100.00
13420;BME280;6781;58.440;15.470;2024-01-16T00:22:36;99947.59;;;-11.77;100.00
13420;BME280;6781;58.440;15.470;2024-01-16T00:25:03;99925.91;;;-12.09;100.00
13420;BME280;6781;58.440;15.470;2024-01-16T00:27:30;99895.09;;;-12.38;100.00
13420;BME280;6781;58.440;15.470;2024-01-16T00:29:58;99903.44;;;-12.23;100.00
13420;BME280;6781;58.440;15.470;2024-01-16T00:32:25;99916.75;;;-12.10;100.00
13420;BME280;6781;58.440;15.470;2024-01-16T00:34:51;99935.06;;;-12.03;100.00
13420;BME280;6781;58.440;15.470;2024-01-16T00:37:18;99962.56;;;-11.85;100.00
13420;BME280;6781;58.440;15.470;2024-01-16T00:39:45;99973.41;;;-11.81;100.00
13420;BME280;6781;58.440;15.470;2024-01-16T00:42:12;99986.72;;;-11.84;100.00
13420;BME280;6781;58.440;15.470;2024-01-16T00:44:38;99994.22;;;-11.89;100.00
13420;BME280;6781;58.440;15.470;2024-01-16T00:47:07;99998.38;;;-11.86;100.00
13420;BME280;6781;58.440;15.470;2024-01-16T00:49:35;100010.06;;;-11.84;100.00
13420;BME280;6781;58.440;15.470;2024-01-16T00:52:01;100009.19;;;-11.95;100.00
13420;BME280;6781;58.440;15.470;2024-01-16T00:54:28;100027.53;;;-11.84;100.00
13420;BME280;6781;58.440;15.470;2024-01-16T00:56:55;100011.66;;;-12.10;100.00
13420;BME280;6781;58.440;15.470;2024-01-16T00:59:24;100009.97;;;-12.22;100.00
13420;BME280;6781;58.440;15.470;2024-01-16T01:01:51;99995.78;;;-12.33;100.00
13420;BME280;6781;58.440;15.470;2024-01-16T01:04:20;99994.09;;;-12.40;100.00
13420;BME280;6781;58.440;15.470;2024-01-16T01:06:47;99995.81;;;-12.30;100.00
13420;BME280;6781;58.440;15.470;2024-01-16T01:09:13;99987.41;;;-12.51;100.00
13420;BME280;6781;58.440;15.470;2024-01-16T01:11:40;99990.72;;;-12.52;100.00
13420;BME280;6781;58.440;15.470;2024-01-16T01:14:07;99989.81;;;-12.69;100.00
13420;BME280;6781;58.440;15.470;2024-01-16T01:16:34;100007.44;;;-12.35;100.00
13420;BME280;6781;58.440;15.470;2024-01-16T01:19:01;100013.25;;;-12.36;100.00
13420;BME280;6781;58.440;15.470;2024-01-16T01:21:29;100025.75;;;-12.30;100.00
13420;BME280;6781;58.440;15.470;2024-01-16T01:23:56;100014.00;;;-12.57;100.00
13420;BME280;6781;58.440;15.470;2024-01-16T01:26:23;99975.50;;;-13.00;100.00
13420;BME280;6781;58.440;15.470;2024-01-16T01:28:50;99974.75;;;-12.90;100.00
13420;BME280;6781;58.440;15.470;2024-01-16T01:31:17;99988.94;;;-12.80;100.00
13420;BME280;6781;58.440;15.470;2024-01-16T01:33:44;99996.47;;;-12.66;100.00
13420;BME280;6781;58.440;15.470;2024-01-16T01:36:11;99995.63;;;-12.73;100.00
13420;BME280;6781;58.440;15.470;2024-01-16T01:38:39;100010.63;;;-12.64;100.00
13420;BME280;6781;58.440;15.470;2024-01-16T01:41:06;100014.84;;;-12.52;100.00
13420;BME280;6781;58.440;15.470;2024-01-16T01:43:32;100027.31;;;-12.54;100.00
13420;BME280;6781;58.440;15.470;2024-01-16T01:46:08;100026.44;;;-12.65;100.00
13420;BME280;6781;58.440;15.470;2024-01-16T01:48:35;100033.91;;;-12.65;100.00
13420;BME280;6781;58.440;15.470;2024-01-16T01:51:02;100042.28;;;-12.57;100.00
13420;BME280;6781;58.440;15.470;2024-01-16T01:53:29;100033.00;;;-12.77;100.00
13420;BME280;6781;58.440;15.470;2024-01-16T01:55:58;100012.94;;;-12.97;100.00
13420;BME280;6781;58.440;15.470;2024-01-16T01:58:25;100048.94;;;-12.56;100.00
13420;BME280;6781;58.440;15.470;2024-01-16T02:00:52;100017.16;;;-12.87;100.00
13420;BME280;6781;58.440;15.470;2024-01-16T02:03:19;100021.31;;;-12.89;100.00
13420;BME280;6781;58.440;15.470;2024-01-16T02:05:47;100019.72;;;-12.75;100.00
13420;BME280;6781;58.440;15.470;2024-01-16T02:08:13;100031.38;;;-12.72;100.00
13420;BME280;6781;58.440;15.470;2024-01-16T02:10:40;100037.22;;;-12.69;100.00
13420;BME280;6781;58.440;15.470;2024-01-16T02:13:10;100042.22;;;-12.69;100.00
13420;BME280;6781;58.440;15.470;2024-01-16T02:15:37;100034.56;;;-12.96;100.00
13420;BME280;6781;58.440;15.470;2024-01-16T02:18:06;100040.44;;;-12.85;100.00
13420;BME280;6781;58.440;15.470;2024-01-16T02:20:33;100035.47;;;-12.82;100.00
13420;BME280;6781;58.440;15.470;2024-01-16T02:23:00;100047.13;;;-12.79;100.00
13420;BME280;6781;58.440;15.470;2024-01-16T02:25:31;100053.81;;;-12.77;100.00
13420;BME280;6781;58.440;15.470;2024-01-16T02:27:59;100074.63;;;-12.72;100.00
13420;BME280;6781;58.440;15.470;2024-01-16T02:30:26;100056.97;;;-12.99;100.00
13420;BME280;6781;58.440;15.470;2024-01-16T02:32:52;100046.94;;;-13.08;100.00
13420;BME280;6781;58.440;15.470;2024-01-16T02:35:19;100053.56;;;-13.10;100.00
13420;BME280;6781;58.440;15.470;2024-01-16T02:37:46;100049.41;;;-13.11;100.00
13420;BME280;6781;58.440;15.470;2024-01-16T02:40:13;100035.16;;;-13.32;100.00
13420;BME280;6781;58.440;15.470;2024-01-16T02:42:41;100053.63;;;-13.04;100.00
13420;BME280;6781;58.440;15.470;2024-01-16T02:45:08;100054.44;;;-13.07;100.00
13420;BME280;6781;58.440;15.470;2024-01-16T02:47:35;100046.09;;;-13.17;100.00
13420;BME280;6781;58.440;15.470;2024-01-16T02:50:02;100030.16;;;-13.35;100.00
13420;BME280;6781;58.440;15.470;2024-01-16T02:52:30;100058.56;;;-13.10;100.00
13420;BME280;6781;58.440;15.470;2024-01-16T02:54:57;100046.09;;;-13.17;100.00
13420;BME280;6781;58.440;15.470;2024-01-16T02:57:23;100015.03;;;-13.55;100.00
13420;BME280;6781;58.440;15.470;2024-01-16T02:59:52;100015.09;;;-13.46;100.00
13420;BME280;6781;58.440;15.470;2024-01-16T03:04:55;100000.88;;;-13.58;100.00
13420;BME280;6781;58.440;15.470;2024-01-16T03:07:22;100012.59;;;-13.48;100.00
13420;BME280;6781;58.440;15.470;2024-01-16T03:09:48;100009.22;;;-13.54;100.00
13420;BME280;6781;58.440;15.470;2024-01-16T03:12:15;100020.91;;;-13.47;100.00
13420;BME280;6781;58.440;15.470;2024-01-16T03:14:42;100027.56;;;-13.44;100.00
13420;BME280;6781;58.440;15.470;2024-01-16T03:17:10;100050.94;;;-13.32;100.00
13420;BME280;6781;58.440;15.470;2024-01-16T03:19:37;100052.56;;;-13.38;100.00
13420;BME280;6781;58.440;15.470;2024-01-16T03:22:04;100044.97;;;-13.49;100.00
13420;BME280;6781;58.440;15.470;2024-01-16T03:24:31;100045.81;;;-13.50;100.00
13420;BME280;6781;58.440;15.470;2024-01-16T03:26:58;100041.59;;;-13.54;100.00
13420;BME280;6781;58.440;15.470;2024-01-16T03:29:25;100041.59;;;-13.56;100.00
13420;BME280;6781;58.440;15.470;2024-01-16T03:31:52;100046.63;;;-13.51;100.00
13420;BME280;6781;58.440;15.470;2024-01-16T03:34:20;100024.69;;;-13.86;100.00
13420;BME280;6781;58.440;15.470;2024-01-16T03:36:47;100042.38;;;-13.61;100.00
13420;BME280;6781;58.440;15.470;2024-01-16T03:39:14;100051.59;;;-13.51;100.00
13420;BME280;6781;58.440;15.470;2024-01-16T03:41:41;100067.53;;;-13.37;100.00
13420;BME280;6781;58.440;15.470;2024-01-16T03:44:08;100079.97;;;-13.37;100.00
13420;BME280;6781;58.440;15.470;2024-01-16T03:46:34;100069.78;;;-13.61;100.00
13420;BME280;6781;58.440;15.470;2024-01-16T03:49:01;100041.25;;;-13.94;100.00
13420;BME280;6781;58.440;15.470;2024-01-16T03:51:29;100031.16;;;-14.06;100.00
13420;BME280;6781;58.440;15.470;2024-01-16T03:53:56;100026.22;;;-14.03;100.00
13420;BME280;6781;58.440;15.470;2024-01-16T03:56:23;100036.31;;;-13.91;100.00
13420;BME280;6781;58.440;15.470;2024-01-16T03:58:50;100019.56;;;-14.04;100.00
13420;BME280;6781;58.440;15.470;2024-01-16T04:01:17;100033.81;;;-13.89;100.00
13420;BME280;6781;58.440;15.470;2024-01-16T04:03:43;100024.56;;;-14.01;100.00
13420;BME280;6781;58.440;15.470;2024-01-16T04:06:16;100012.91;;;-14.05;100.00
13420;BME280;6781;58.440;15.470;2024-01-16T04:08:45;100046.41;;;-13.74;100.00
13420;BME280;6781;58.440;15.470;2024-01-16T04:11:12;100057.97;;;-13.81;100.00
13420;BME280;6781;58.440;15.470;2024-01-16T04:13:38;100059.66;;;-13.76;100.00
13420;BME280;6781;58.440;15.470;2024-01-16T04:16:05;100047.97;;;-13.87;100.00
13420;BME280;6781;58.440;15.470;2024-01-16T04:18:35;100058.69;;;-13.94;100.00
13420;BME280;6781;58.440;15.470;2024-01-16T04:21:01;100031.81;;;-14.22;100.00
13420;BME280;6781;58.440;15.470;2024-01-16T04:23:28;100009.22;;;-14.37;100.00
13420;BME280;6781;58.440;15.470;2024-01-16T04:25:56;100008.50;;;-14.29;100.00
13420;BME280;6781;58.440;15.470;2024-01-16T04:28:23;100027.84;;;-14.05;100.00
13420;BME280;6781;58.440;15.470;2024-01-16T04:30:50;100005.97;;;-14.33;100.00
13420;BME280;6781;58.440;15.470;2024-01-16T04:33:17;100023.63;;;-14.10;100.00
13420;BME280;6781;58.440;15.470;2024-01-16T04:35:43;100012.75;;;-14.20;100.00
13420;BME280;6781;58.440;15.470;2024-01-16T04:38:10;99982.56;;;-14.51;100.00
13420;BME280;6781;58.440;15.470;2024-01-16T04:40:37;100012.81;;;-14.14;100.00
13420;BME280;6781;58.440;15.470;2024-01-16T04:43:05;100026.19;;;-14.06;100.00
13420;BME280;6781;58.440;15.470;2024-01-16T04:45:32;100013.50;;;-14.27;100.00
13420;BME280;6781;58.440;15.470;2024-01-16T04:47:59;100010.03;;;-14.43;100.00
13420;BME280;6781;58.440;15.470;2024-01-16T04:50:26;100027.75;;;-14.14;100.00
13420;BME280;6781;58.440;15.470;2024-01-16T04:52:56;100014.22;;;-14.37;100.00
13420;BME280;6781;58.440;15.470;2024-01-16T04:55:25;100020.88;;;-14.35;100.00
13420;BME280;6781;58.440;15.470;2024-01-16T04:57:52;100025.94;;;-14.27;100.00
13420;BME280;6781;58.440;15.470;2024-01-16T05:00:20;99991.50;;;-14.66;100.00
13420;BME280;6781;58.440;15.470;2024-01-16T05:02:47;99986.53;;;-14.66;100.00
13420;BME280;6781;58.440;15.470;2024-01-16T05:05:13;99997.47;;;-14.54;100.00
13420;BME280;6781;58.440;15.470;2024-01-16T05:07:41;99982.25;;;-14.75;100.00
13420;BME280;6781;58.440;15.470;2024-01-16T05:10:09;99980.63;;;-14.73;100.00
13420;BME280;6781;58.440;15.470;2024-01-16T05:12:36;99971.38;;;-14.85;100.00
13420;BME280;6781;58.440;15.470;2024-01-16T05:15:03;99975.44;;;-14.91;100.00
13420;BME280;6781;58.440;15.470;2024-01-16T05:17:31;99995.63;;;-14.67;100.00
13420;BME280;6781;58.440;15.470;2024-01-16T05:19:58;100013.34;;;-14.42;100.00
13420;BME280;6781;58.440;15.470;2024-01-16T05:22:25;100008.94;;;-14.63;100.00
13420;BME280;6781;58.440;15.470;2024-01-16T05:24:52;100013.16;;;-14.58;100.00
13420;BME280;6781;58.440;15.470;2024-01-16T05:27:19;100018.97;;;-14.57;100.00
13420;BME280;6781;58.440;15.470;2024-01-16T05:29:46;100013.91;;;-14.65;100.00
13420;BME280;6781;58.440;15.470;2024-01-16T05:32:13;100037.31;;;-14.51;100.00
13420;BME280;6781;58.440;15.470;2024-01-16T05:34:41;100013.81;;;-14.71;100.00
13420;BME280;6781;58.440;15.470;2024-01-16T05:37:08;100042.22;;;-14.54;100.00
13420;BME280;6781;58.440;15.470;2024-01-16T05:39:35;100043.13;;;-14.49;100.00
13420;BME280;6781;58.440;15.470;2024-01-16T05:42:02;100036.28;;;-14.65;100.00
13420;BME280;6781;58.440;15.470;2024-01-16T05:44:29;100054.72;;;-14.49;100.00
13420;BME280;6781;58.440;15.470;2024-01-16T05:46:56;100079.81;;;-14.31;100.00
13420;BME280;6781;58.440;15.470;2024-01-16T05:49:23;100097.34;;;-14.23;100.00
13420;BME280;6781;58.440;15.470;2024-01-16T05:51:51;100100.56;;;-14.30;100.00
13420;BME280;6781;58.440;15.470;2024-01-16T05:54:18;100092.16;;;-14.40;100.00
13420;BME280;6781;58.440;15.470;2024-01-16T05:56:45;100075.34;;;-14.58;100.00
13420;BME280;6781;58.440;15.470;2024-01-16T05:59:11;100073.72;;;-14.56;100.00
13420;BME280;6781;58.440;15.470;2024-01-16T06:01:38;100095.66;;;-14.24;100.00
13420;BME280;6781;58.440;15.470;2024-01-16T06:04:05;100097.34;;;-14.23;100.00
13420;BME280;6781;58.440;15.470;2024-01-16T06:06:32;100097.13;;;-14.38;100.00
13420;BME280;6781;58.440;15.470;2024-01-16T06:09:00;100115.66;;;-14.18;100.00
13420;BME280;6781;58.440;15.470;2024-01-16T06:11:30;100123.88;;;-14.24;100.00
13420;BME280;6781;58.440;15.470;2024-01-16T06:13:57;100120.34;;;-14.39;100.00
13420;BME280;6781;58.440;15.470;2024-01-16T06:16:24;100101.91;;;-14.57;100.00
13420;BME280;6781;58.440;15.470;2024-01-16T06:18:51;100096.78;;;-14.66;100.00
13420;BME280;6781;58.440;15.470;2024-01-16T06:21:18;100120.41;;;-14.36;100.00
13420;BME280;6781;58.440;15.470;2024-01-16T06:23:44;100118.53;;;-14.53;100.00
13420;BME280;6781;58.440;15.470;2024-01-16T06:26:13;100127.66;;;-14.52;100.00
13420;BME280;6781;58.440;15.470;2024-01-16T06:28:40;100097.38;;;-14.82;100.00
13420;BME280;6781;58.440;15.470;2024-01-16T06:31:08;100090.56;;;-14.94;100.00
13420;BME280;6781;58.440;15.470;2024-01-16T06:33:35;100084.72;;;-14.97;100.00
13420;BME280;6781;58.440;15.470;2024-01-16T06:36:01;100105.88;;;-14.68;100.00
13420;BME280;6781;58.440;15.470;2024-01-16T06:38:29;100116.06;;;-14.53;100.00
13420;BME280;6781;58.440;15.470;2024-01-16T06:40:56;100093.13;;;-14.89;100.00
13420;BME280;6781;58.440;15.470;2024-01-16T06:43:24;100091.47;;;-14.89;100.00
13420;BME280;6781;58.440;15.470;2024-01-16T06:45:51;100101.63;;;-14.75;100.00
13420;BME280;6781;58.440;15.470;2024-01-16T06:48:18;100115.72;;;-14.75;100.00
13420;BME280;6781;58.440;15.470;2024-01-16T06:50:45;100113.97;;;-14.81;100.00
13420;BME280;6781;58.440;15.470;2024-01-16T06:53:12;100096.28;;;-14.99;100.00
13420;BME280;6781;58.440;15.470;2024-01-16T06:55:38;100088.63;;;-15.11;100.00
13420;BME280;6781;58.440;15.470;2024-01-16T06:58:05;100084.44;;;-15.16;100.00
13420;BME280;6781;58.440;15.470;2024-01-16T07:00:33;100055.94;;;-15.36;100.00
13420;BME280;6781;58.440;15.470;2024-01-16T07:03:00;100088.75;;;-15.04;100.00
13420;BME280;6781;58.440;15.470;2024-01-16T07:05:28;100093.78;;;-15.01;100.00
13420;BME280;6781;58.440;15.470;2024-01-16T07:07:54;100107.19;;;-14.91;100.00
13420;BME280;6781;58.440;15.470;2024-01-16T07:10:21;100112.97;;;-14.92;100.00
13420;BME280;6781;58.440;15.470;2024-01-16T07:12:49;100108.84;;;-14.92;100.00
13420;BME280;6781;58.440;15.470;2024-01-16T07:15:16;100090.38;;;-15.06;100.00
13420;BME280;6781;58.440;15.470;2024-01-16T07:17:45;100099.63;;;-14.97;100.00
13420;BME280;6781;58.440;15.470;2024-01-16T07:20:12;100099.53;;;-15.03;100.00
13420;BME280;6781;58.440;15.470;2024-01-16T07:22:38;100092.13;;;-15.00;100.00
13420;BME280;6781;58.440;15.470;2024-01-16T07:25:06;100103.81;;;-14.95;100.00
13420;BME280;6781;58.440;15.470;2024-01-16T07:27:33;100109.63;;;-14.94;100.00
13420;BME280;6781;58.440;15.470;2024-01-16T07:29:59;100101.91;;;-15.11;100.00
13420;BME280;6781;58.440;15.470;2024-01-16T07:32:26;100112.00;;;-15.02;100.00
13420;BME280;6781;58.440;15.470;2024-01-16T07:34:55;100116.94;;;-15.03;100.00
13420;BME280;6781;58.440;15.470;2024-01-16T07:37:21;100128.59;;;-15.01;100.00
13420;BME280;6781;58.440;15.470;2024-01-16T07:39:48;100123.53;;;-15.05;100.00
13420;BME280;6781;58.440;15.470;2024-01-16T07:42:15;100120.31;;;-15.00;100.00
13420;BME280;6781;58.440;15.470;2024-01-16T07:44:42;100121.97;;;-14.99;100.00
13420;BME280;6781;58.440;15.470;2024-01-16T07:47:09;100127.78;;;-14.98;100.00
13420;BME280;6781;58.440;15.470;2024-01-16T07:49:36;100128.44;;;-15.10;100.00
13420;BME280;6781;58.440;15.470;2024-01-16T07:52:04;100136.78;;;-15.05;100.00
13420;BME280;6781;58.440;15.470;2024-01-16T07:54:31;100150.16;;;-14.98;100.00
13420;BME280;6781;58.440;15.470;2024-01-16T07:56:58;100131.69;;;-15.14;100.00
13420;BME280;6781;58.440;15.470;2024-01-16T07:59:25;100113.94;;;-15.34;100.00
13420;BME280;6781;58.440;15.470;2024-01-16T08:01:52;100109.84;;;-15.32;100.00
13420;BME280;6781;58.440;15.470;2024-01-16T08:04:20;100080.47;;;-15.54;100.00
13420;BME280;6781;58.440;15.470;2024-01-16T08:06:47;100112.69;;;-15.10;100.00
13420;BME280;6781;58.440;15.470;2024-01-16T08:09:16;100102.69;;;-15.14;100.00
13420;BME280;6781;58.440;15.470;2024-01-16T08:11:42;100081.56;;;-15.38;100.00
13420;BME280;6781;58.440;15.470;2024-01-16T08:14:09;100091.03;;;-15.18;100.00
13420;BME280;6781;58.440;15.470;2024-01-16T08:16:36;100100.22;;;-15.12;100.00
13420;BME280;6781;58.440;15.470;2024-01-16T08:19:03;100107.63;;;-15.15;100.00
13420;BME280;6781;58.440;15.470;2024-01-16T08:21:29;100107.75;;;-15.07;100.00
13420;BME280;6781;58.440;15.470;2024-01-16T08:23:56;100099.31;;;-15.17;100.00
13420;BME280;6781;58.440;15.470;2024-01-16T08:26:25;100087.47;;;-15.32;100.00
13420;BME280;6781;58.440;15.470;2024-01-16T08:28:52;100084.19;;;-15.31;100.00
13420;BME280;6781;58.440;15.470;2024-01-16T08:31:19;100084.13;;;-15.34;100.00
13420;BME280;6781;58.440;15.470;2024-01-16T08:33:46;100089.31;;;-15.22;100.00
13420;BME280;6781;58.440;15.470;2024-01-16T08:36:14;100087.69;;;-15.20;100.00
13420;BME280;6781;58.440;15.470;2024-01-16T08:38:41;100099.59;;;-15.00;100.00
13420;BME280;6781;58.440;15.470;2024-01-16T08:41:07;100085.00;;;-15.32;100.00
13420;BME280;6781;58.440;15.470;2024-01-16T08:43:36;100086.81;;;-15.22;100.00
13420;BME280;6781;58.440;15.470;2024-01-16T08:46:03;100100.34;;;-15.04;100.00
13420;BME280;6781;58.440;15.470;2024-01-16T08:48:30;100080.22;;;-15.20;100.00
13420;BME280;6781;58.440;15.470;2024-01-16T08:50:56;100075.84;;;-15.34;100.00
13420;BME280;6781;58.440;15.470;2024-01-16T08:53:24;100097.16;;;-14.96;100.00
13420;BME280;6781;58.440;15.470;2024-01-16T08:55:51;100079.50;;;-15.13;100.00
13420;BME280;6781;58.440;15.470;2024-01-16T08:58:17;100081.19;;;-15.11;100.00
13420;BME280;6781;58.440;15.470;2024-01-16T09:00:46;100087.00;;;-15.11;100.00
13420;BME280;6781;58.440;15.470;2024-01-16T09:03:13;100066.03;;;-15.27;100.00
13420;BME280;6781;58.440;15.470;2024-01-16T09:05:39;100062.69;;;-15.29;100.00
13420;BME280;6781;58.440;15.470;2024-01-16T09:08:06;100049.50;;;-15.25;100.00
13420;BME280;6781;58.440;15.470;2024-01-16T09:10:33;100058.63;;;-15.24;100.00
13420;BME280;6781;58.440;15.470;2024-01-16T09:13:00;100057.75;;;-15.26;100.00
13420;BME280;6781;58.440;15.470;2024-01-16T09:15:27;100035.19;;;-15.39;100.00
13420;BME280;6781;58.440;15.470;2024-01-16T09:17:56;100047.09;;;-15.20;100.00
13420;BME280;6781;58.440;15.470;2024-01-16T09:20:22;100028.00;;;-15.23;100.00
13420;BME280;6781;58.440;15.470;2024-01-16T09:22:49;100033.59;;;-15.36;100.00
13420;BME280;6781;58.440;15.470;2024-01-16T09:25:16;100040.31;;;-15.29;100.00
13420;BME280;6781;58.440;15.470;2024-01-16T09:27:43;100057.34;;;-14.99;100.00
13420;BME280;6781;58.440;15.470;2024-01-16T09:30:10;100063.16;;;-14.98;100.00
13420;BME280;6781;58.440;15.470;2024-01-16T09:32:37;100078.13;;;-14.95;100.00
13420;BME280;6781;58.440;15.470;2024-01-16T09:35:06;100090.66;;;-14.88;100.00
13420;BME280;6781;58.440;15.470;2024-01-16T09:37:34;100083.13;;;-14.92;100.00
13420;BME280;6781;58.440;15.470;2024-01-16T09:40:01;100083.94;;;-14.95;100.00
13420;BME280;6781;58.440;15.470;2024-01-16T09:42:30;100097.44;;;-14.79;100.00
13420;BME280;6781;58.440;15.470;2024-01-16T09:44:57;100099.72;;;-14.91;100.00
13420;BME280;6781;58.440;15.470;2024-01-16T09:47:25;100106.50;;;-14.81;100.00
13420;BME280;6781;58.440;15.470;2024-01-16T09:49:53;100114.13;;;-14.72;100.00
13420;BME280;6781;58.440;15.470;2024-01-16T09:52:22;100119.09;;;-14.70;100.00
13420;BME280;6781;58.440;15.470;2024-01-16T09:54:49;100133.25;;;-14.66;100.00
13420;BME280;6781;58.440;15.470;2024-01-16T09:57:16;100154.91;;;-14.61;100.00
13420;BME280;6781;58.440;15.470;2024-01-16T09:59:45;100156.53;;;-14.63;100.00
13420;BME280;6781;58.440;15.470;2024-01-16T10:02:13;100175.69;;;-14.57;100.00
13420;BME280;6781;58.440;15.470;2024-01-16T10:04:41;100188.22;;;-14.51;100.00
13420;BME280;6781;58.440;15.470;2024-01-16T10:07:08;100195.72;;;-14.50;100.00
13420;BME280;6781;58.440;15.470;2024-01-16T10:09:39;100213.22;;;-14.40;100.00
13420;BME280;6781;58.440;15.470;2024-01-16T10:12:06;100220.81;;;-14.33;100.00
13420;BME280;6781;58.440;15.470;2024-01-16T10:14:33;100238.22;;;-14.34;100.00
13420;BME280;6781;58.440;15.470;2024-01-16T10:17:00;100255.00;;;-14.21;100.00
13420;BME280;6781;58.440;15.470;2024-01-16T10:19:30;100267.50;;;-14.18;100.00
13420;BME280;6781;58.440;15.470;2024-01-16T10:22:01;100269.16;;;-14.19;100.00
13420;BME280;6781;58.440;15.470;2024-01-16T10:24:28;100287.69;;;-14.00;100.00
13420;BME280;6781;58.440;15.470;2024-01-16T10:26:58;100281.00;;;-14.02;100.00
13420;BME280;6781;58.440;15.470;2024-01-16T10:29:29;100295.91;;;-14.05;100.00
13420;BME280;6781;58.440;15.470;2024-01-16T10:31:57;100304.28;;;-14.00;100.00
13420;BME280;6781;58.440;15.470;2024-01-16T10:34:24;100304.28;;;-14.00;100.00
13420;BME280;6781;58.440;15.470;2024-01-16T10:36:51;100311.00;;;-13.96;100.00
13420;BME280;6781;58.440;15.470;2024-01-16T10:39:19;100339.41;;;-13.82;100.00
13420;BME280;6781;58.440;15.470;2024-01-16T10:41:53;100336.88;;;-13.84;100.00
13420;BME280;6781;58.440;15.470;2024-01-16T10:44:21;100353.53;;;-13.81;100.00
13420;BME280;6781;58.440;15.470;2024-01-16T10:46:48;100361.88;;;-13.77;100.00
13420;BME280;6781;58.440;15.470;2024-01-16T10:49:15;100374.63;;;-13.58;100.00
13420;BME280;6781;58.440;15.470;2024-01-16T10:51:42;100390.56;;;-13.48;100.00
13420;BME280;6781;58.440;15.470;2024-01-16T10:54:10;100394.81;;;-13.42;100.00
13420;BME280;6781;58.440;15.470;2024-01-16T10:56:40;100409.91;;;-13.32;100.00
13420;BME280;6781;58.440;15.470;2024-01-16T10:59:09;100432.56;;;-13.17;100.00
13420;BME280;6781;58.440;15.470;2024-01-16T11:01:40;100438.38;;;-13.18;100.00
13420;BME280;6781;58.440;15.470;2024-01-16T11:04:09;100445.94;;;-13.10;100.00
13420;BME280;6781;58.440;15.470;2024-01-16T11:06:37;100458.56;;;-12.99;100.00
13420;BME280;6781;58.440;15.470;2024-01-16T11:09:05;100467.78;;;-12.92;100.00
13420;BME280;6781;58.440;15.470;2024-01-16T11:11:33;100476.94;;;-12.93;100.00
13420;BME280;6781;58.440;15.470;2024-01-16T11:14:03;100469.38;;;-12.97;100.00
13420;BME280;6781;58.440;15.470;2024-01-16T11:16:30;100478.53;;;-12.98;100.00
13420;BME280;6781;58.440;15.470;2024-01-16T11:19:00;100475.19;;;-13.00;100.00
13420;BME280;6781;58.440;15.470;2024-01-16T11:21:26;100491.84;;;-12.97;100.00
13420;BME280;6781;58.440;15.470;2024-01-16T11:23:54;100486.94;;;-12.91;100.00
13420;BME280;6781;58.440;15.470;2024-01-16T11:26:27;100494.41;;;-12.91;100.00
13420;BME280;6781;58.440;15.470;2024-01-16T11:28:55;100494.44;;;-12.90;100.00
13420;BME280;6781;58.440;15.470;2024-01-16T11:31:27;100502.75;;;-12.89;100.00
13420;BME280;6781;58.440;15.470;2024-01-16T11:34:13;100501.13;;;-12.87;100.00
13420;BME280;6781;58.440;15.470;2024-01-16T11:36:47;100512.63;;;-12.98;100.00
13420;BME280;6781;58.440;15.470;2024-01-16T11:39:17;100526.84;;;-12.93;100.00
13420;BME280;6781;58.440;15.470;2024-01-16T11:41:56;100534.38;;;-12.88;100.00
13420;BME280;6781;58.440;15.470;2024-01-16T11:44:42;100557.78;;;-12.80;100.00
13420;BME280;6781;58.440;15.470;2024-01-16T11:47:15;100572.75;;;-12.80;100.00
13420;BME280;6781;58.440;15.470;2024-01-16T11:49:44;100590.34;;;-12.72;100.00
13420;BME280;6781;58.440;15.470;2024-01-16T11:52:10;100583.59;;;-12.78;100.00
13420;BME280;6781;58.440;15.470;2024-01-16T11:54:38;100599.41;;;-12.77;100.00
13420;BME280;6781;58.440;15.470;2024-01-16T12:00:00;100618.72;;;-12.66;100.00
13420;BME280;6781;58.440;15.470;2024-01-16T12:02:29;100637.94;;;-12.62;100.00
13420;BME280;6781;58.440;15.470;2024-01-16T12:04:57;100641.34;;;-12.57;100.00
13420;BME280;6781;58.440;15.470;2024-01-16T12:07:28;100660.59;;;-12.50;100.00
13420;BME280;6781;58.440;15.470;2024-01-16T12:09:58;100667.31;;;-12.45;100.00
13420;BME280;6781;58.440;15.470;2024-01-16T12:12:25;100691.50;;;-12.41;100.00
13420;BME280;6781;58.440;15.470;2024-01-16T12:14:52;100689.88;;;-12.39;100.00
13420;BME280;6781;58.440;15.470;2024-01-16T12:17:19;100693.13;;;-12.43;100.00
13420;BME280;6781;58.440;15.470;2024-01-16T12:19:46;100695.59;;;-12.46;100.00
13420;BME280;6781;58.440;15.470;2024-01-16T12:22:16;100698.91;;;-12.46;100.00
13420;BME280;6781;58.440;15.470;2024-01-16T12:24:43;100718.19;;;-12.37;100.00
13420;BME280;6781;58.440;15.470;2024-01-16T12:27:10;100729.88;;;-12.36;100.00
13420;BME280;6781;58.440;15.470;2024-01-16T12:29:37;100729.91;;;-12.33;100.00
13420;BME280;6781;58.440;15.470;2024-01-16T12:32:06;100739.13;;;-12.29;100.00
13420;BME280;6781;58.440;15.470;2024-01-16T12:34:33;100752.50;;;-12.27;100.00
13420;BME280;6781;58.440;15.470;2024-01-16T12:37:04;100766.88;;;-12.11;100.00